Celilo, Oregon
Current Conditions -  °F | °C
As of 5:53 AM on Saturday 25 Oct 2014 (Local Time) from KDLS Reporting Station
Overcast Overcast  
Wind Chill: 52°   Ceiling: 2400
Heat Index: 52°   Visibility: 10mi
Dew Point: 49°   Wind: 3mph
Humidity: 89%   Direction: 170°S
Pressure: 29.68"   Gusts: NA
Location:  45.5517°N, 121.219°W
Report Text: KDLS 251253Z AUTO 17003KT 10SM OVC024 11/09 A2968 RMK AO2 SLP051 T01110094
Loading
Personal Weather Stations






























Interactive Weather Map
Tropical Storm Tracking
New forecast layout! Learn more

10-Day Weather Forecast

Advertisements
Track Severe Weather on mobile